KMDJ/MDJ METAR and TAF weather

Enter ICAO airport designator
Station Type Date Time Source
KMDJ METAR 2021/02/07 16:55 UTC NOAA

KMDJ 071655Z AUTO 03016KT 10SM BKN020 OVC025 13/09 A3011 RMK A01


Station Type Date Time Source
KMDJ Decoded METAR 2021/02/07 16:55 UTC NOAA

Mississippi Canyon, LA, United States (KMDJ) 28-38-33N 089-47-39W
Feb 07, 2021 - 11:55 AM EST / 2021.02.07 1655 UTC
Wind: from the NNE (030 degrees) at 18 MPH (16 KT):0
Visibility: 10 mile(s):0
Sky conditions: overcast
Temperature: 55 F (13 C)
Dew Point: 48 F (9 C)
Relative Humidity: 76%
Pressure (altimeter): 30.11 in. Hg (1019 hPa)
ob: KMDJ 071655Z AUTO 03016KT 10SM BKN020 OVC025 13/09 A3011 RMK A01
cycle: 17

Station Type Date Time Source
KMDJ TAF UTC NOAA

Error!

Example: see airport list